createdAt,value
2023-11-01T00:00:59.090Z,5.95
2023-11-01T00:03:35.217Z,3.17
2023-11-01T00:06:12.490Z,3.70
2023-11-01T00:08:48.209Z,4.90
2023-11-01T00:11:28.360Z,7.82
2023-11-01T00:13:56.993Z,5.20
2023-11-01T00:16:37.390Z,4.32
2023-11-01T00:19:13.088Z,5.38
2023-11-01T00:21:48.385Z,5.35
2023-11-01T00:24:19.468Z,6.07
2023-11-01T00:26:59.165Z,4.88
2023-11-01T00:29:35.159Z,3.22
2023-11-01T00:32:05.914Z,3.80
2023-11-01T00:34:41.669Z,7.07
2023-11-01T00:37:12.450Z,9.80
2023-11-01T00:39:48.083Z,6.35
2023-11-01T00:42:21.358Z,4.82
2023-11-01T00:44:50.903Z,4.13
2023-11-01T00:47:25.375Z,4.25
2023-11-01T00:50:04.338Z,6.38
2023-11-01T00:52:41.156Z,4.55
2023-11-01T00:55:11.544Z,4.65
2023-11-01T00:57:54.697Z,4.43
2023-11-01T01:00:29.433Z,5.93
2023-11-01T01:03:03.788Z,6.32
2023-11-01T01:05:41.734Z,4.00
2023-11-01T01:08:13.083Z,3.95
2023-11-01T01:10:51.897Z,4.00
2023-11-01T01:13:24.638Z,7.53
2023-11-01T01:16:07.607Z,4.97
2023-11-01T01:18:38.319Z,4.35
2023-11-01T01:21:13.279Z,4.95
2023-11-01T01:23:47.205Z,5.15
2023-11-01T01:26:17.733Z,5.15
2023-11-01T01:28:51.460Z,5.80
2023-11-01T01:31:22.468Z,6.93
2023-11-01T01:34:13.213Z,4.93
2023-11-01T01:36:41.498Z,4.88
2023-11-01T01:39:15.313Z,5.55
2023-11-01T01:41:47.735Z,7.63
2023-11-01T01:44:17.356Z,5.35
2023-11-01T01:46:51.109Z,8.43
2023-11-01T01:49:39.813Z,5.53
2023-11-01T01:52:16.707Z,4.53
2023-11-01T01:54:52.997Z,8.23
2023-11-01T01:57:31.649Z,4.30
2023-11-01T02:00:08.888Z,8.77
2023-11-01T02:02:47.154Z,8.05
2023-11-01T02:08:03.294Z,4.18
2023-11-01T02:10:38.418Z,4.80
2023-11-01T02:13:22.278Z,4.88
2023-11-01T02:15:53.233Z,4.60
2023-11-01T02:18:22.708Z,6.53
2023-11-01T02:20:55.386Z,5.05
2023-11-01T02:23:38.567Z,7.43
2023-11-01T02:26:12.383Z,5.80
2023-11-01T02:28:42.341Z,4.40
2023-11-01T02:33:45.684Z,8.80
2023-11-01T02:36:14.588Z,5.00
2023-11-01T02:38:45.467Z,4.68
2023-11-01T02:41:18.245Z,7.20
2023-11-01T02:43:50.394Z,4.13
2023-11-01T02:46:23.796Z,6.90
2023-11-01T02:49:02.660Z,5.40
2023-11-01T02:51:31.863Z,5.10
2023-11-01T02:54:07.046Z,9.67
2023-11-01T02:56:35.757Z,5.40
2023-11-01T02:59:05.233Z,7.10
2023-11-01T03:01:34.942Z,6.28
2023-11-01T03:04:08.175Z,6.00
2023-11-01T03:06:37.734Z,4.78
2023-11-01T03:09:07.216Z,7.18
2023-11-01T03:11:38.294Z,7.63
2023-11-01T03:14:11.852Z,5.30
2023-11-01T03:16:45.505Z,10.75
2023-11-01T03:19:15.690Z,7.68
2023-11-01T03:21:46.137Z,5.38
2023-11-01T03:24:15.801Z,8.95
2023-11-01T03:26:48.262Z,20.85
2023-11-01T03:29:17.136Z,8.02
2023-11-01T03:31:47.386Z,6.15
2023-11-01T03:34:21.014Z,7.68
2023-11-01T03:36:50.003Z,6.45
2023-11-01T03:39:21.463Z,6.97
2023-11-01T03:41:51.009Z,6.97
2023-11-01T03:44:21.245Z,7.43
2023-11-01T03:46:55.324Z,6.05
2023-11-01T03:49:35.421Z,5.80
2023-11-01T03:52:05.830Z,8.63
2023-11-01T03:54:38.415Z,8.88
2023-11-01T03:57:08.953Z,7.53
2023-11-01T03:59:38.295Z,9.07
2023-11-01T04:02:11.688Z,6.55
2023-11-01T04:04:41.360Z,9.65
2023-11-01T04:07:11.923Z,11.70
2023-11-01T04:09:45.203Z,6.05
2023-11-01T04:12:24.365Z,7.63
2023-11-01T04:14:55.542Z,5.20
2023-11-01T04:17:28.577Z,8.40
2023-11-01T04:20:02.243Z,6.53
2023-11-01T04:22:31.754Z,6.30
2023-11-01T04:25:03.099Z,7.07
2023-11-01T04:27:37.366Z,7.93
2023-11-01T04:30:09.530Z,7.25
2023-11-01T04:32:43.816Z,6.03
2023-11-01T04:35:18.737Z,6.55
2023-11-01T04:37:48.728Z,6.57
2023-11-01T04:40:18.965Z,13.18
2023-11-01T04:42:51.351Z,6.00
2023-11-01T04:45:20.601Z,8.27
2023-11-01T04:47:55.598Z,6.38
2023-11-01T04:50:27.992Z,8.68
2023-11-01T04:52:58.058Z,6.93
2023-11-01T04:55:30.562Z,5.57
2023-11-01T04:58:04.200Z,8.38
2023-11-01T05:00:36.685Z,9.25
2023-11-01T05:03:10.194Z,8.98
2023-11-01T05:05:40.384Z,7.60
2023-11-01T05:08:09.460Z,10.38
2023-11-01T05:10:41.819Z,8.33
2023-11-01T05:13:12.480Z,9.10
2023-11-01T05:15:46.736Z,8.10
2023-11-01T05:18:15.640Z,8.48
2023-11-01T05:20:47.545Z,9.15
2023-11-01T05:23:18.403Z,9.32
2023-11-01T05:25:49.342Z,14.88
2023-11-01T05:28:25.112Z,13.73
2023-11-01T05:31:06.252Z,8.35
2023-11-01T05:33:36.337Z,8.70
2023-11-01T05:36:10.802Z,7.35
2023-11-01T05:38:44.941Z,9.02
2023-11-01T05:41:14.974Z,10.60
2023-11-01T05:43:45.431Z,9.48
2023-11-01T05:46:14.385Z,9.60
2023-11-01T05:48:48.090Z,9.55
2023-11-01T05:51:16.506Z,10.05
2023-11-01T05:53:54.630Z,9.05
2023-11-01T05:56:28.012Z,16.13
2023-11-01T05:59:07.634Z,9.13
2023-11-01T06:01:41.733Z,11.80
2023-11-01T06:04:23.801Z,12.18
2023-11-01T06:07:00.374Z,11.75
2023-11-01T06:09:39.488Z,12.73
2023-11-01T06:12:09.498Z,17.43
2023-11-01T06:14:40.354Z,11.95
2023-11-01T06:17:09.532Z,11.88
2023-11-01T06:19:43.588Z,15.05
2023-11-01T06:22:13.519Z,11.95
2023-11-01T06:27:17.167Z,15.63
2023-11-01T06:29:49.455Z,12.88
2023-11-01T06:32:29.912Z,12.63
2023-11-01T06:35:03.223Z,16.17
2023-11-01T06:37:38.901Z,11.27
2023-11-01T06:40:14.925Z,12.63
2023-11-01T06:42:44.934Z,13.18
2023-11-01T06:45:16.877Z,14.27
2023-11-01T06:47:50.016Z,18.60
2023-11-01T06:50:19.134Z,16.02
2023-11-01T06:52:49.207Z,15.73
2023-11-01T06:55:27.165Z,12.45
2023-11-01T06:57:57.834Z,11.15
2023-11-01T07:00:32.188Z,11.13
2023-11-01T07:03:04.046Z,12.25
2023-11-01T07:05:35.857Z,15.45
2023-11-01T07:08:05.292Z,10.70
2023-11-01T07:10:33.069Z,9.85
2023-11-01T07:13:00.469Z,9.93
2023-11-01T07:15:29.683Z,12.45
2023-11-01T07:17:58.531Z,10.68
2023-11-01T07:20:28.359Z,9.05
2023-11-01T07:25:29.851Z,9.10
2023-11-01T07:27:58.857Z,10.68
2023-11-01T07:30:33.277Z,10.60
2023-11-01T07:33:05.619Z,8.98
2023-11-01T07:35:35.966Z,9.70
2023-11-01T07:38:07.044Z,7.18
2023-11-01T07:40:35.959Z,6.28
2023-11-01T07:43:09.032Z,6.60
2023-11-01T07:45:40.972Z,8.82
2023-11-01T07:48:08.912Z,6.80
2023-11-01T07:50:40.631Z,6.40
2023-11-01T07:53:10.581Z,7.05
2023-11-01T07:55:39.735Z,7.15
2023-11-01T07:58:08.568Z,6.18
2023-11-01T08:00:38.558Z,6.50
2023-11-01T08:03:07.372Z,4.70
2023-11-01T08:05:35.743Z,6.07
2023-11-01T08:08:05.556Z,4.72
2023-11-01T08:10:33.341Z,3.90
2023-11-01T08:13:03.582Z,3.70
2023-11-01T08:15:35.867Z,3.50
2023-11-01T08:18:06.918Z,2.60
2023-11-01T08:20:35.415Z,4.35
2023-11-01T08:23:03.132Z,2.65
2023-11-01T08:25:30.799Z,2.28
2023-11-01T08:28:00.969Z,3.05
2023-11-01T08:30:29.964Z,3.60
2023-11-01T08:32:59.086Z,3.03
2023-11-01T08:35:30.839Z,7.55
2023-11-01T08:37:58.801Z,2.72
2023-11-01T08:40:37.076Z,3.00
2023-11-01T08:43:09.124Z,5.03
2023-11-01T08:45:37.153Z,2.35
2023-11-01T08:48:04.877Z,2.75
2023-11-01T08:50:34.349Z,2.83
2023-11-01T08:53:06.276Z,2.85
2023-11-01T08:55:38.139Z,2.58
2023-11-01T08:58:08.377Z,2.45
2023-11-01T09:00:45.264Z,3.65
2023-11-01T09:03:17.815Z,1.75
2023-11-01T09:05:50.140Z,4.22
2023-11-01T09:08:21.079Z,3.05
2023-11-01T09:10:52.975Z,2.08
2023-11-01T09:13:26.417Z,1.65
2023-11-01T09:15:57.292Z,3.05
2023-11-01T09:18:28.505Z,1.65
2023-11-01T09:20:56.676Z,3.40
2023-11-01T09:23:30.479Z,3.13
2023-11-01T09:26:03.408Z,2.88
2023-11-01T09:28:33.723Z,2.78
2023-11-01T09:31:07.029Z,3.92
2023-11-01T09:33:44.505Z,2.92
2023-11-01T09:36:16.633Z,3.95
2023-11-01T09:38:44.629Z,2.88
2023-11-01T09:41:24.787Z,2.70
2023-11-01T09:44:04.714Z,3.38
2023-11-01T09:49:12.138Z,4.72
2023-11-01T09:51:43.083Z,2.50
2023-11-01T09:54:19.480Z,2.08
2023-11-01T09:56:55.370Z,2.20
2023-11-01T09:59:25.204Z,4.72
2023-11-01T10:01:53.903Z,4.32
2023-11-01T10:04:22.519Z,2.35
2023-11-01T10:06:50.533Z,2.60
2023-11-01T10:09:18.283Z,2.42
2023-11-01T10:11:53.937Z,3.33
2023-11-01T10:14:32.859Z,10.20
2023-11-01T10:17:01.854Z,2.67
2023-11-01T10:19:31.629Z,5.00
2023-11-01T10:24:31.947Z,1.35
2023-11-01T10:27:01.181Z,2.17
2023-11-01T10:29:48.904Z,3.60
2023-11-01T10:32:21.548Z,2.30
2023-11-01T10:34:49.918Z,2.70
2023-11-01T10:37:24.535Z,3.88
2023-11-01T10:39:57.028Z,1.83
2023-11-01T10:42:26.671Z,4.60
2023-11-01T10:44:56.203Z,4.63
2023-11-01T10:49:59.557Z,2.83
2023-11-01T10:52:31.229Z,4.25
2023-11-01T10:55:02.033Z,2.83
2023-11-01T10:57:32.209Z,3.25
2023-11-01T11:00:21.772Z,3.05
2023-11-01T11:03:19.458Z,2.42
2023-11-01T11:05:54.334Z,3.72
2023-11-01T11:08:23.980Z,1.83
2023-11-01T11:11:00.407Z,4.10
2023-11-01T11:13:36.585Z,9.27
2023-11-01T11:16:12.642Z,3.13
2023-11-01T11:18:49.014Z,4.82
2023-11-01T11:21:48.635Z,3.20
2023-11-01T11:24:44.769Z,5.43
2023-11-01T11:27:47.069Z,5.57
2023-11-01T11:30:17.543Z,3.15
2023-11-01T11:32:52.785Z,2.50
2023-11-01T11:35:25.980Z,2.88
2023-11-01T11:37:54.896Z,3.45
2023-11-01T11:40:30.334Z,2.70
2023-11-01T11:43:04.481Z,3.00
2023-11-01T11:45:44.171Z,5.05
2023-11-01T11:48:43.773Z,2.58
2023-11-01T11:51:14.063Z,4.97
2023-11-01T11:53:51.897Z,2.22
2023-11-01T11:56:21.729Z,3.35
2023-11-01T12:01:27.240Z,4.90
2023-11-01T12:04:01.561Z,2.53
2023-11-01T12:06:58.376Z,1.70
2023-11-01T12:09:30.938Z,2.92
2023-11-01T12:12:07.107Z,2.60
2023-11-01T12:14:37.862Z,3.55
2023-11-01T12:17:11.524Z,4.32
2023-11-01T12:19:47.242Z,2.42
2023-11-01T12:22:23.910Z,4.30
2023-11-01T12:24:59.342Z,2.28
2023-11-01T12:27:35.556Z,2.08
2023-11-01T12:30:05.720Z,5.10
2023-11-01T12:32:36.746Z,2.67
2023-11-01T12:35:08.247Z,4.22
2023-11-01T12:37:36.832Z,3.75
2023-11-01T12:40:15.709Z,2.90
2023-11-01T12:42:55.100Z,2.90
2023-11-01T12:45:25.374Z,9.25
2023-11-01T12:47:59.102Z,3.03
2023-11-01T12:50:33.094Z,6.93
2023-11-01T12:55:43.633Z,4.65
2023-11-01T12:58:14.583Z,4.35
2023-11-01T13:00:47.197Z,5.82
2023-11-01T13:03:16.637Z,7.07
2023-11-01T13:05:48.913Z,3.30
2023-11-01T13:08:24.638Z,5.22
2023-11-01T13:10:59.453Z,7.75
2023-11-01T13:13:32.406Z,4.47
2023-11-01T13:16:02.429Z,4.13
2023-11-01T13:18:36.870Z,4.72
2023-11-01T13:21:21.826Z,5.70
2023-11-01T13:24:01.228Z,4.60
2023-11-01T13:26:28.739Z,3.85
2023-11-01T13:29:01.308Z,4.13
2023-11-01T13:31:38.959Z,5.07
2023-11-01T13:34:15.156Z,6.68
2023-11-01T13:36:46.923Z,4.05
2023-11-01T13:39:20.089Z,2.35
2023-11-01T13:41:55.935Z,5.53
2023-11-01T13:44:26.291Z,2.92
2023-11-01T13:46:59.898Z,3.45
2023-11-01T13:49:35.351Z,3.97
2023-11-01T13:52:03.944Z,4.53
2023-11-01T13:54:31.716Z,2.90
2023-11-01T13:57:07.604Z,5.07
2023-11-01T13:59:36.985Z,3.80
2023-11-01T14:02:07.226Z,3.35
2023-11-01T14:04:40.172Z,4.75
2023-11-01T14:07:15.375Z,7.68
2023-11-01T14:09:47.692Z,7.35
2023-11-01T14:12:17.238Z,4.22
2023-11-01T14:14:55.692Z,5.30
2023-11-01T14:17:30.042Z,4.80
2023-11-01T14:20:03.307Z,6.03
2023-11-01T14:22:31.458Z,4.18
2023-11-01T14:25:03.711Z,6.57
2023-11-01T14:27:35.528Z,5.20
2023-11-01T14:30:03.790Z,9.82
2023-11-01T14:32:34.648Z,7.15
2023-11-01T14:35:03.570Z,10.55
2023-11-01T14:37:33.354Z,12.88
2023-11-01T14:42:34.015Z,16.45
2023-11-01T14:45:02.651Z,44.78
2023-11-01T14:47:30.875Z,300.73
2023-11-01T14:49:58.241Z,203.77
2023-11-01T14:52:31.043Z,79.00
2023-11-01T14:54:59.327Z,55.05
2023-11-01T14:57:27.370Z,171.13
2023-11-01T14:59:56.655Z,101.05
2023-11-01T15:02:29.901Z,76.85
2023-11-01T15:04:58.918Z,52.40
2023-11-01T15:07:26.453Z,62.43
2023-11-01T15:09:55.431Z,46.75
2023-11-01T15:12:24.984Z,29.55
2023-11-01T15:14:58.864Z,20.05
2023-11-01T15:17:33.277Z,23.85
2023-11-01T15:20:01.960Z,17.38
2023-11-01T15:22:30.933Z,20.83
2023-11-01T15:24:58.009Z,22.33
2023-11-01T15:27:26.267Z,35.35
2023-11-01T15:29:54.136Z,40.55
2023-11-01T15:32:21.953Z,35.63
2023-11-01T15:34:49.133Z,32.33
2023-11-01T15:37:16.707Z,28.52
2023-11-01T15:39:47.846Z,30.75
2023-11-01T15:42:18.607Z,30.95
2023-11-01T15:44:46.187Z,27.20
2023-11-01T15:47:13.605Z,27.23
2023-11-01T15:49:40.774Z,24.98
2023-11-01T15:52:08.020Z,23.90
2023-11-01T15:54:34.910Z,27.98
2023-11-01T15:57:02.277Z,30.58
2023-11-01T15:59:29.457Z,29.98
2023-11-01T16:01:56.855Z,31.30
2023-11-01T16:04:24.264Z,33.63
2023-11-01T16:06:51.414Z,34.22
2023-11-01T16:09:19.460Z,37.95
2023-11-01T16:11:47.224Z,37.25
2023-11-01T16:14:19.036Z,33.88
2023-11-01T16:16:48.340Z,36.63
2023-11-01T16:19:15.564Z,38.58
2023-11-01T16:21:46.978Z,34.17
2023-11-01T16:24:14.579Z,31.40
2023-11-01T16:26:42.083Z,28.23
2023-11-01T16:29:10.009Z,28.05
2023-11-01T16:31:37.322Z,26.92
2023-11-01T16:34:04.606Z,23.70
2023-11-01T16:36:35.482Z,23.77
2023-11-01T16:39:02.826Z,24.08
2023-11-01T16:41:30.700Z,22.27
2023-11-01T16:43:57.992Z,25.15
2023-11-01T16:46:25.180Z,24.83
2023-11-01T16:48:52.486Z,21.95
2023-11-01T16:51:19.709Z,21.67
2023-11-01T16:53:47.891Z,21.33
2023-11-01T16:56:15.447Z,19.02
2023-11-01T16:58:42.916Z,20.63
2023-11-01T17:01:09.876Z,16.20
2023-11-01T17:03:36.936Z,21.05
2023-11-01T17:06:04.458Z,19.30
2023-11-01T17:08:32.675Z,18.38
2023-11-01T17:10:59.651Z,28.08
2023-11-01T17:13:27.230Z,26.17
2023-11-01T17:15:57.270Z,27.05
2023-11-01T17:18:25.272Z,27.38
2023-11-01T17:20:53.686Z,31.10
2023-11-01T17:23:20.912Z,29.20
2023-11-01T17:25:50.648Z,26.02
2023-11-01T17:28:26.269Z,33.85
2023-11-01T17:30:54.318Z,32.83
2023-11-01T17:33:34.225Z,31.52
2023-11-01T17:38:41.900Z,35.72
2023-11-01T17:41:10.199Z,34.22
2023-11-01T17:43:49.010Z,26.10
2023-11-01T17:46:26.958Z,24.75
2023-11-01T17:49:09.724Z,27.67
2023-11-01T17:51:39.330Z,23.75
2023-11-01T17:54:11.935Z,21.73
2023-11-01T17:56:38.916Z,26.45
2023-11-01T17:59:09.334Z,28.52
2023-11-01T18:01:38.131Z,32.00
2023-11-01T18:04:07.314Z,27.27
2023-11-01T18:06:36.707Z,25.42
2023-11-01T18:09:21.940Z,23.92
2023-11-01T18:11:58.934Z,23.55
2023-11-01T18:14:33.490Z,22.33
2023-11-01T18:17:06.424Z,22.08
2023-11-01T18:19:42.201Z,26.65
2023-11-01T18:22:44.094Z,27.50
2023-11-01T18:25:34.176Z,20.77
2023-11-01T18:28:10.884Z,19.40
2023-11-01T18:30:50.769Z,16.45
2023-11-01T18:35:48.475Z,15.52
2023-11-01T18:38:49.049Z,18.83
2023-11-01T18:41:24.346Z,16.58
2023-11-01T18:43:58.389Z,19.17
2023-11-01T18:46:34.112Z,16.30
2023-11-01T18:49:07.862Z,28.95
2023-11-01T18:51:59.885Z,26.10
2023-11-01T18:54:44.342Z,28.85
2023-11-01T18:57:20.512Z,29.73
2023-11-01T18:59:48.149Z,29.42
2023-11-01T19:02:36.546Z,31.38
2023-11-01T19:05:08.939Z,37.33
2023-11-01T19:07:41.298Z,32.70
2023-11-01T19:10:23.168Z,33.80
2023-11-01T19:12:54.083Z,40.95
2023-11-01T19:18:08.409Z,28.83
2023-11-01T19:20:35.875Z,27.08
2023-11-01T19:23:02.951Z,35.38
2023-11-01T19:25:29.916Z,43.03
2023-11-01T19:27:56.880Z,39.78
2023-11-01T19:30:25.020Z,32.65
2023-11-01T19:32:53.398Z,23.17
2023-11-01T19:35:20.350Z,20.27
2023-11-01T19:37:47.444Z,22.48
2023-11-01T19:40:14.442Z,23.17
2023-11-01T19:42:41.518Z,19.27
2023-11-01T19:45:09.597Z,20.88
2023-11-01T19:47:39.212Z,20.90
2023-11-01T19:50:09.764Z,19.40
2023-11-01T19:52:38.203Z,17.15
2023-11-01T19:55:05.502Z,20.00
2023-11-01T19:57:33.747Z,18.65
2023-11-01T20:00:01.277Z,15.07
2023-11-01T20:02:29.703Z,16.02
2023-11-01T20:04:56.666Z,17.33
2023-11-01T20:07:25.806Z,16.58
2023-11-01T20:09:52.731Z,22.45
2023-11-01T20:12:21.567Z,18.63
2023-11-01T20:14:48.785Z,19.63
2023-11-01T20:17:15.683Z,20.40
2023-11-01T20:19:43.571Z,18.45
2023-11-01T20:22:10.599Z,14.63
2023-11-01T20:24:37.458Z,15.32
2023-11-01T20:27:05.009Z,18.45
2023-11-01T20:29:32.070Z,19.48
2023-11-01T20:31:59.327Z,20.67
2023-11-01T20:34:26.387Z,15.63
2023-11-01T20:36:53.688Z,22.15
2023-11-01T20:39:20.593Z,15.93
2023-11-01T20:41:47.706Z,18.30
2023-11-01T20:44:14.962Z,17.67
2023-11-01T20:46:41.867Z,15.07
2023-11-01T20:49:11.582Z,15.15
2023-11-01T20:51:39.446Z,13.23
2023-11-01T20:54:06.477Z,33.70
2023-11-01T20:56:37.962Z,43.03
2023-11-01T20:59:05.159Z,33.70
2023-11-01T21:01:32.079Z,47.63
2023-11-01T21:03:59.142Z,44.83
2023-11-01T21:06:26.756Z,35.08
2023-11-01T21:08:54.432Z,28.88
2023-11-01T21:11:21.486Z,27.25
2023-11-01T21:13:52.125Z,19.67
2023-11-01T21:16:19.044Z,19.23
2023-11-01T21:18:46.105Z,15.65
2023-11-01T21:21:13.365Z,17.73
2023-11-01T21:23:43.457Z,17.48
2023-11-01T21:26:10.751Z,15.30
2023-11-01T21:28:40.898Z,11.77
2023-11-01T21:31:11.263Z,14.98
2023-11-01T21:33:41.160Z,12.98
2023-11-01T21:36:08.659Z,12.05
2023-11-01T21:38:35.631Z,8.98
2023-11-01T21:41:02.664Z,15.32
2023-11-01T21:43:29.864Z,14.10
2023-11-01T21:45:56.757Z,11.50
2023-11-01T21:48:25.811Z,12.82
2023-11-01T21:51:01.146Z,12.07
2023-11-01T21:53:31.796Z,15.57
2023-11-01T21:55:59.949Z,9.88
2023-11-01T21:58:32.606Z,11.23
2023-11-01T22:01:05.379Z,12.48
2023-11-01T22:03:43.146Z,12.52
2023-11-01T22:06:11.469Z,11.25
2023-11-01T22:09:15.483Z,11.43
2023-11-01T22:11:45.965Z,11.73
2023-11-01T22:14:34.480Z,10.63
2023-11-01T22:17:04.136Z,10.52
2023-11-01T22:19:43.173Z,10.68
2023-11-01T22:22:32.580Z,12.18
2023-11-01T22:24:59.694Z,12.48
2023-11-01T22:27:39.284Z,14.90
2023-11-01T22:30:08.553Z,14.05
2023-11-01T22:32:35.685Z,14.90
2023-11-01T22:35:02.874Z,13.40
2023-11-01T22:37:29.899Z,13.35
2023-11-01T22:39:57.690Z,11.45
2023-11-01T22:42:32.569Z,12.38
2023-11-01T22:45:03.843Z,10.07
2023-11-01T22:47:31.226Z,10.32
2023-11-01T22:49:59.275Z,8.05
2023-11-01T22:52:26.155Z,11.80
2023-11-01T22:54:53.239Z,8.18
2023-11-01T22:57:20.285Z,9.18
2023-11-01T22:59:47.310Z,8.45
2023-11-01T23:02:16.639Z,13.57
2023-11-01T23:04:44.132Z,12.10
2023-11-01T23:07:11.965Z,10.20
2023-11-01T23:09:39.114Z,10.20
2023-11-01T23:12:06.954Z,10.23
2023-11-01T23:14:33.967Z,10.95
2023-11-01T23:17:01.313Z,10.32
2023-11-01T23:19:28.664Z,8.73
2023-11-01T23:21:55.537Z,8.23
2023-11-01T23:24:24.685Z,10.05
2023-11-01T23:26:58.625Z,9.63
2023-11-01T23:29:26.446Z,12.63
2023-11-01T23:31:53.877Z,9.15
2023-11-01T23:34:46.601Z,12.18
2023-11-01T23:37:35.260Z,9.98
2023-11-01T23:40:08.356Z,11.13
2023-11-01T23:42:35.537Z,9.57
2023-11-01T23:45:26.774Z,11.13
2023-11-01T23:47:55.624Z,12.88
2023-11-01T23:50:43.743Z,10.75
2023-11-01T23:53:18.482Z,9.85
2023-11-01T23:55:49.777Z,9.88
2023-11-01T23:58:29.714Z,9.50
